Time;durP1;ratioP1;P1;durP2;ratioP2;P2;SDS_P1;SDS_P2;PMS_P1;PMS_P2;Temp;Humidity;BMP_temperature;BMP_pressure;BME280_temperature;BME280_humidity;BME280_pressure;Samples;Min_cycle;Max_cycle;Signal;HPM_P1;HPM_P2
2024/02/12 00:01:55;;;;;;;8.43;2.63;;;;;;;13.79;93.33;98927.88;5029481;28;20025;-78
2024/02/12 00:04:26;;;;;;;9.27;2.15;;;;;;;13.95;93.32;98912.59;5028281;28;20021;-80
2024/02/12 00:06:56;;;;;;;7.97;2.22;;;;;;;13.61;94.69;98879.13;5030088;28;20067;-79
2024/02/12 00:09:22;;;;;;;13.35;2.70;;;;;;;13.85;93.29;98890.13;5029198;28;20037;-79
2024/02/12 00:11:47;;;;;;;9.30;2.22;;;;;;;14.01;94.01;98917.69;5029571;28;20037;-79
2024/02/12 00:14:14;;;;;;;17.63;3.53;;;;;;;13.78;94.81;98888.75;5028828;28;20140;-79
2024/02/12 00:16:40;;;;;;;12.10;3.63;;;;;;;14.00;94.47;98908.03;5029231;28;20524;-79
2024/02/12 00:19:08;;;;;;;10.55;2.95;;;;;;;13.96;95.91;98916.91;5025562;28;20129;-79
2024/02/12 00:21:34;;;;;;;11.27;2.95;;;;;;;13.88;96.76;98898.69;5027343;28;20042;-80
2024/02/12 00:23:59;;;;;;;11.70;2.30;;;;;;;13.91;97.67;98901.59;5009702;28;20045;-79
2024/02/12 00:26:25;;;;;;;13.18;2.30;;;;;;;13.82;96.31;98884.47;5023577;28;20088;-80
2024/02/12 00:28:56;;;;;;;10.18;2.70;;;;;;;13.98;93.19;98872.66;5028852;28;20033;-79
2024/02/12 00:31:22;;;;;;;9.88;2.30;;;;;;;14.21;91.91;98898.09;5029917;28;20037;-79
2024/02/12 00:33:48;;;;;;;8.75;2.17;;;;;;;14.48;89.95;98902.31;5029034;28;20037;-79
2024/02/12 00:36:20;;;;;;;10.25;2.80;;;;;;;14.10;91.41;98874.25;5028972;28;20106;-79
2024/02/12 00:38:45;;;;;;;10.80;2.40;;;;;;;14.36;90.34;98889.19;5028822;28;20468;-79
2024/02/12 00:41:15;;;;;;;11.35;2.38;;;;;;;14.38;90.44;98889.72;5029094;28;20534;-79
2024/02/12 00:43:42;;;;;;;14.80;3.15;;;;;;;14.35;90.28;98878.75;5029303;28;20075;-79
2024/02/12 00:46:08;;;;;;;11.18;2.38;;;;;;;14.46;88.65;98899.94;5037899;28;20049;-80
2024/02/12 00:48:35;;;;;;;13.10;2.45;;;;;;;14.47;88.63;98896.16;5041400;28;20044;-79
2024/02/12 00:51:01;;;;;;;10.00;2.67;;;;;;;14.63;87.51;98896.16;5027906;28;20136;-79
2024/02/12 00:53:26;;;;;;;11.32;2.67;;;;;;;14.65;86.78;98870.63;5016405;28;20180;-79
2024/02/12 00:55:52;;;;;;;11.25;2.50;;;;;;;14.40;86.21;98831.25;5014870;28;20083;-79
2024/02/12 00:58:18;;;;;;;13.18;2.72;;;;;;;14.62;86.24;98865.00;5028601;28;20634;-79
2024/02/12 01:00:43;;;;;;;15.55;2.90;;;;;;;14.26;91.44;98857.88;5027869;28;20022;-80
2024/02/12 01:03:10;;;;;;;12.27;3.20;;;;;;;13.97;94.43;98822.81;5028800;28;20028;-79
2024/02/12 01:05:36;;;;;;;12.00;3.28;;;;;;;14.15;94.85;98848.22;5028620;28;20021;-79
2024/02/12 01:08:01;;;;;;;17.55;3.70;;;;;;;14.10;96.52;98850.13;5027580;28;20029;-78
2024/02/12 01:10:26;;;;;;;16.23;3.03;;;;;;;14.00;97.88;98853.63;5028632;28;20037;-79
2024/02/12 01:12:52;;;;;;;11.07;2.88;;;;;;;13.89;98.11;98826.03;5028931;28;20474;-79
2024/02/12 01:15:18;;;;;;;13.07;3.92;;;;;;;14.06;97.04;98847.19;5028604;28;20057;-79
2024/02/12 01:17:44;;;;;;;11.88;3.05;;;;;;;14.25;95.14;98828.63;5026124;28;20030;-79
2024/02/12 01:20:11;;;;;;;15.63;2.33;;;;;;;14.06;93.75;98810.47;5026131;28;20038;-79
2024/02/12 01:22:38;;;;;;;6.88;2.17;;;;;;;14.43;89.87;98819.19;5028360;28;20051;-79
2024/02/12 01:25:04;;;;;;;9.63;2.13;;;;;;;14.34;89.19;98815.47;5028182;28;20045;-79
2024/02/12 01:27:30;;;;;;;10.38;2.70;;;;;;;14.10;90.41;98799.19;5027327;28;20091;-80
2024/02/12 01:29:55;;;;;;;12.20;2.45;;;;;;;14.00;93.29;98811.56;5028160;28;20025;-79
2024/02/12 01:32:22;;;;;;;11.55;1.70;;;;;;;13.83;94.64;98811.03;5028590;28;20128;-79
2024/02/12 01:34:47;;;;;;;10.02;2.10;;;;;;;13.73;95.69;98816.41;5028466;28;20033;-78
2024/02/12 01:37:13;;;;;;;8.80;1.98;;;;;;;13.58;96.86;98803.84;5028386;28;20033;-78
2024/02/12 01:39:39;;;;;;;6.80;1.77;;;;;;;13.59;98.05;98800.09;5027922;28;20127;-79
2024/02/12 01:42:14;;;;;;;9.45;1.80;;;;;;;13.49;98.20;98790.19;5027733;28;20029;-79
2024/02/12 01:45:13;;;;;;;7.47;1.60;;;;;;;13.49;97.50;98795.56;5028174;28;20026;-79
2024/02/12 01:47:43;;;;;;;6.28;1.23;;;;;;;13.44;96.71;98771.44;5028603;28;20098;-78
2024/02/12 01:50:15;;;;;;;8.95;1.40;;;;;;;13.44;96.02;98784.84;5030432;28;20033;-78
2024/02/12 01:52:48;;;;;;;6.57;2.83;;;;;;;13.32;93.59;98758.34;5028503;28;20038;-79
2024/02/12 01:55:15;;;;;;;5.05;1.58;;;;;;;13.52;91.52;98768.22;5028107;28;20032;-79
2024/02/12 01:57:41;;;;;;;5.93;1.92;;;;;;;13.44;92.43;98780.31;5042753;28;20108;-79
2024/02/12 02:00:11;;;;;;;11.50;4.43;;;;;;;13.41;90.46;98777.34;5045981;28;20823;-78
2024/02/12 02:02:40;;;;;;;8.70;3.70;;;;;;;13.60;85.99;98759.63;5047856;28;20031;-78
2024/02/12 02:05:06;;;;;;;9.32;4.80;;;;;;;13.79;84.93;98767.09;5048351;28;20025;-80
2024/02/12 02:07:33;;;;;;;8.40;3.40;;;;;;;13.84;84.75;98780.50;5035903;28;20519;-80
2024/02/12 02:09:58;;;;;;;6.90;1.83;;;;;;;13.66;88.26;98771.94;5028342;28;20696;-78
2024/02/12 02:12:25;;;;;;;3.13;1.40;;;;;;;13.45;90.27;98760.47;5029199;28;20064;-79
2024/02/12 02:14:51;;;;;;;5.10;1.10;;;;;;;13.24;93.41;98754.31;5027639;28;20535;-80
2024/02/12 02:17:18;;;;;;;8.15;1.17;;;;;;;13.15;94.99;98741.72;5031022;28;20627;-79
2024/02/12 02:19:43;;;;;;;7.85;2.20;;;;;;;13.09;96.92;98735.56;5039358;28;20032;-79
2024/02/12 02:22:09;;;;;;;8.30;1.63;;;;;;;13.07;98.30;98733.13;5038676;28;20506;-79
2024/02/12 02:24:34;;;;;;;10.60;1.85;;;;;;;13.19;99.26;98746.25;5038476;28;20026;-79
2024/02/12 02:27:00;;;;;;;7.72;1.40;;;;;;;13.03;100.00;98734.75;5038653;28;20039;-80
2024/02/12 02:29:25;;;;;;;9.60;1.55;;;;;;;13.13;100.00;98741.97;5038371;28;20028;-79
2024/02/12 02:31:51;;;;;;;11.50;1.60;;;;;;;12.91;100.00;98696.75;5039942;28;20490;-79
2024/02/12 02:34:17;;;;;;;11.20;3.22;;;;;;;13.29;100.00;98736.63;5038551;28;20478;-79
2024/02/12 02:36:46;;;;;;;12.20;2.80;;;;;;;13.28;100.00;98735.84;5036134;28;20095;-78
2024/02/12 02:39:13;;;;;;;11.55;2.83;;;;;;;13.16;100.00;98717.38;5036392;28;20036;-78
2024/02/12 02:41:42;;;;;;;29.60;19.63;;;;;;;13.21;100.00;98724.59;5035414;28;20387;-79
2024/02/12 02:44:08;;;;;;;16.35;5.40;;;;;;;13.41;100.00;98719.25;5037066;28;20026;-79
2024/02/12 02:46:33;;;;;;;13.73;2.53;;;;;;;13.29;100.00;98721.41;5035406;28;20072;-79
2024/02/12 02:48:58;;;;;;;12.73;2.10;;;;;;;13.25;100.00;98718.41;5033263;28;20065;-78
2024/02/12 02:51:27;;;;;;;12.85;2.60;;;;;;;13.42;100.00;98728.06;5033259;28;20034;-78
2024/02/12 02:53:54;;;;;;;12.98;2.75;;;;;;;13.46;100.00;98735.31;5030273;28;20521;-79
2024/02/12 02:56:20;;;;;;;13.27;3.10;;;;;;;13.60;100.00;98748.94;5029421;28;20030;-79
2024/02/12 02:58:47;;;;;;;12.32;3.55;;;;;;;13.54;100.00;98763.41;5028201;28;20407;-79
2024/02/12 03:01:13;;;;;;;15.68;3.17;;;;;;;13.24;100.00;98751.63;5028503;28;20115;-79
2024/02/12 03:03:39;;;;;;;13.05;2.72;;;;;;;13.21;100.00;98759.38;5028523;28;20109;-80
2024/02/12 03:06:05;;;;;;;14.77;2.67;;;;;;;13.18;100.00;98731.28;5028247;28;20160;-79
2024/02/12 03:08:34;;;;;;;13.82;2.72;;;;;;;13.29;100.00;98737.47;5027780;28;20037;-79
2024/02/12 03:11:01;;;;;;;15.95;4.20;;;;;;;13.25;100.00;98742.50;5027316;28;20103;-79
2024/02/12 03:13:27;;;;;;;20.02;6.70;;;;;;;13.21;100.00;98730.72;5025892;28;20025;-79
2024/02/12 03:15:52;;;;;;;14.05;3.78;;;;;;;13.04;100.00;98714.16;5025617;28;20057;-79
2024/02/12 03:18:20;;;;;;;9.85;2.72;;;;;;;12.91;100.00;98710.13;5025981;28;20067;-79
2024/02/12 03:20:46;;;;;;;16.52;2.92;;;;;;;13.05;100.00;98721.09;5025581;28;20029;-79
2024/02/12 03:23:13;;;;;;;12.85;4.40;;;;;;;13.24;100.00;98716.81;5027139;28;20120;-79
2024/02/12 03:25:39;;;;;;;16.25;5.13;;;;;;;13.23;100.00;98731.25;5026665;28;20066;-79
2024/02/12 03:28:05;;;;;;;14.95;3.60;;;;;;;13.24;100.00;98748.16;5026641;28;20490;-79
2024/02/12 03:30:31;;;;;;;14.07;1.70;;;;;;;13.02;100.00;98713.63;5028373;28;20044;-79
2024/02/12 03:32:59;;;;;;;13.10;1.83;;;;;;;13.01;100.00;98730.75;5030776;28;20402;-79
2024/02/12 03:35:25;;;;;;;;;;;;;;;13.16;100.00;98746.81;5029782;28;20044;-79
2024/02/12 03:37:50;;;;;;;14.07;3.75;;;;;;;13.12;100.00;98724.31;5030407;28;19913;-79
2024/02/12 03:40:17;;;;;;;11.63;2.78;;;;;;;12.91;100.00;98714.69;5030642;28;20162;-79
2024/02/12 03:42:43;;;;;;;15.70;3.20;;;;;;;12.92;100.00;98733.16;5031158;28;20465;-79
2024/02/12 03:45:11;;;;;;;11.70;2.03;;;;;;;12.91;100.00;98752.13;5030096;28;20112;-78
2024/02/12 03:47:40;;;;;;;8.73;2.05;;;;;;;12.66;100.00;98730.44;5029841;28;20399;-79
2024/02/12 04:01:13;;;;;;;22.83;5.13;;;;;;;12.80;100.00;98729.94;5029492;28;20406;-79
2024/02/12 04:03:38;;;;;;;21.00;7.18;;;;;;;12.68;100.00;98722.16;5029688;28;20025;-79
2024/02/12 04:06:06;;;;;;;18.73;3.53;;;;;;;12.71;100.00;98726.97;5029277;28;20033;-80
2024/02/12 04:08:32;;;;;;;18.93;3.50;;;;;;;12.61;100.00;98719.75;5029401;28;20041;-79
2024/02/12 04:10:58;;;;;;;16.17;3.15;;;;;;;12.59;100.00;98739.81;5027650;28;20280;-79
2024/02/12 04:13:25;;;;;;;19.13;3.53;;;;;;;12.54;100.00;98737.09;5029771;28;20094;-79
2024/02/12 04:15:51;;;;;;;15.13;3.97;;;;;;;12.56;100.00;98730.41;5029034;28;20056;-79
2024/02/12 04:18:17;;;;;;;14.60;3.55;;;;;;;12.37;100.00;98722.09;5028932;28;20021;-78
2024/02/12 04:20:43;;;;;;;13.77;2.90;;;;;;;12.55;100.00;98744.06;5029423;28;20079;-79
2024/02/12 04:23:14;;;;;;;19.75;3.42;;;;;;;12.44;100.00;98738.69;5031845;28;20086;-79
2024/02/12 04:25:40;;;;;;;15.73;2.80;;;;;;;12.90;100.00;98798.72;5028050;28;20040;-79
2024/02/12 04:28:05;;;;;;;16.75;4.28;;;;;;;12.84;100.00;98801.34;5029201;28;20029;-79
2024/02/12 04:30:31;;;;;;;8.13;2.95;;;;;;;12.74;100.00;98817.38;5029074;28;20021;-78
2024/02/12 04:32:59;;;;;;;12.07;2.70;;;;;;;12.21;100.00;98787.25;5028631;28;20037;-79
2024/02/12 04:35:27;;;;;;;10.30;2.63;;;;;;;11.86;100.00;98840.19;5028958;28;20041;-78
2024/02/12 04:37:54;;;;;;;7.78;2.33;;;;;;;11.33;100.00;98846.47;5029011;28;20029;-79
2024/02/12 04:40:23;;;;;;;7.53;2.47;;;;;;;11.25;100.00;98851.19;5047137;28;20040;-80
2024/02/12 04:42:48;;;;;;;5.20;1.60;;;;;;;10.97;100.00;98846.94;5036275;28;20120;-79
2024/02/12 04:45:14;;;;;;;5.97;1.58;;;;;;;10.70;100.00;98849.56;5029223;28;20175;-80
2024/02/12 04:47:39;;;;;;;8.80;1.83;;;;;;;10.21;100.00;98825.50;5028890;28;20030;-80
2024/02/12 04:50:07;;;;;;;9.05;2.40;;;;;;;10.13;100.00;98844.56;5028421;28;20029;-81
2024/02/12 04:52:33;;;;;;;5.65;1.50;;;;;;;10.22;100.00;98849.22;5027159;28;20029;-81
2024/02/12 04:54:59;;;;;;;7.72;2.75;;;;;;;10.11;100.00;98836.81;5043914;28;20041;-81
2024/02/12 04:57:24;;;;;;;4.82;1.92;;;;;;;10.04;100.00;98831.66;5048266;28;20032;-79
2024/02/12 04:59:50;;;;;;;10.10;2.97;;;;;;;10.18;100.00;98823.34;5035185;28;20120;-81
2024/02/12 05:02:15;;;;;;;11.00;4.00;;;;;;;10.07;100.00;98801.06;5028309;28;20057;-81
2024/02/12 05:04:42;;;;;;;15.82;5.47;;;;;;;10.03;100.00;98792.78;5027088;28;20128;-81
2024/02/12 05:07:07;;;;;;;6.47;1.80;;;;;;;10.21;100.00;98810.31;5027958;28;20030;-80
2024/02/12 05:09:33;;;;;;;5.80;1.58;;;;;;;10.10;100.00;98807.78;5026961;28;20120;-81
2024/02/12 05:11:59;;;;;;;5.45;1.70;;;;;;;10.13;100.00;98804.59;5027934;28;20415;-80
2024/02/12 05:14:26;;;;;;;5.03;1.65;;;;;;;10.18;100.00;98786.84;5026624;28;20137;-81
2024/02/12 05:16:59;;;;;;;4.47;1.48;;;;;;;10.22;100.00;98795.94;5026965;28;20410;-81
2024/02/12 05:24:54;;;;;;;6.30;2.40;;;;;;;10.30;100.00;98764.59;5028265;28;20099;-80
2024/02/12 05:27:19;;;;;;;14.02;5.90;;;;;;;10.36;100.00;98774.28;5027791;28;20037;-80
2024/02/12 05:29:45;;;;;;;12.85;5.28;;;;;;;10.42;100.00;98790.09;5028076;28;20017;-80
2024/02/12 05:32:11;;;;;;;11.57;3.80;;;;;;;10.27;100.00;98782.66;5026587;28;20033;-79
2024/02/12 05:34:37;;;;;;;10.98;3.55;;;;;;;10.25;100.00;98762.66;5026524;28;20183;-80
2024/02/12 05:37:02;;;;;;;12.85;4.47;;;;;;;10.23;100.00;98773.56;5027387;28;20512;-80
2024/02/12 05:39:31;;;;;;;15.23;5.38;;;;;;;10.37;100.00;98782.03;5030782;28;20085;-80
2024/02/12 05:41:57;;;;;;;16.23;9.65;;;;;;;10.55;100.00;98786.22;5035692;28;20045;-79
2024/02/12 05:44:22;;;;;;;7.35;4.97;;;;;;;10.39;100.00;98758.59;5039350;28;20461;-80
2024/02/12 05:46:49;;;;;;;4.95;2.00;;;;;;;10.46;100.00;98758.38;5036896;28;20101;-80
2024/02/12 05:49:22;;;;;;;13.02;4.43;;;;;;;10.70;100.00;98806.09;5031950;28;20099;-80
2024/02/12 05:51:48;;;;;;;9.80;3.95;;;;;;;10.47;100.00;98804.53;5035051;28;20037;-78
2024/02/12 05:54:14;;;;;;;10.27;3.78;;;;;;;10.41;100.00;98798.31;5034979;28;20029;-79
2024/02/12 05:56:39;;;;;;;30.50;16.35;;;;;;;10.50;100.00;98826.16;5036185;28;20033;-79
2024/02/12 05:59:05;;;;;;;8.57;4.45;;;;;;;10.62;100.00;98831.34;5035716;28;20021;-80
2024/02/12 06:01:31;;;;;;;9.75;5.20;;;;;;;10.51;100.00;98818.97;5036959;28;20048;-80
2024/02/12 06:03:57;;;;;;;9.80;3.75;;;;;;;10.43;100.00;98838.88;5036751;28;20052;-80
2024/02/12 06:06:24;;;;;;;5.13;1.63;;;;;;;10.17;100.00;98833.16;5038945;28;20091;-79
2024/02/12 06:08:50;;;;;;;6.03;3.08;;;;;;;10.11;100.00;98830.69;5033384;28;20475;-79
2024/02/12 06:11:15;;;;;;;5.65;1.83;;;;;;;10.35;100.00;98813.44;5041450;28;20044;-79
2024/02/12 06:13:40;;;;;;;13.18;5.65;;;;;;;10.72;100.00;98804.78;5033404;28;20076;-79
2024/02/12 06:16:06;;;;;;;22.13;9.75;;;;;;;10.92;100.00;98816.75;5027272;28;20045;-79
2024/02/12 06:18:32;;;;;;;21.88;11.77;;;;;;;10.84;100.00;98802.00;5026135;28;20471;-79
2024/02/12 06:20:57;;;;;;;22.65;11.73;;;;;;;10.58;100.00;98798.25;5027175;28;20041;-79
2024/02/12 06:23:22;;;;;;;23.85;12.05;;;;;;;10.58;100.00;98824.91;5027645;28;20398;-79
2024/02/12 06:25:48;;;;;;;6.18;2.75;;;;;;;10.31;100.00;98824.84;5027198;28;20033;-79
2024/02/12 06:28:13;;;;;;;5.03;2.17;;;;;;;10.26;100.00;98833.56;5026950;28;20408;-79
2024/02/12 06:30:39;;;;;;;5.60;1.95;;;;;;;9.93;100.00;98851.22;5026798;28;20033;-78
2024/02/12 06:33:05;;;;;;;4.80;1.80;;;;;;;10.05;100.00;98854.59;5025823;28;20538;-79
2024/02/12 06:35:30;;;;;;;4.97;1.92;;;;;;;10.06;100.00;98861.53;5027658;28;20036;-79
2024/02/12 06:37:56;;;;;;;6.57;1.70;;;;;;;9.70;100.00;98846.06;5027488;28;20040;-79
2024/02/12 06:40:22;;;;;;;4.13;1.50;;;;;;;10.06;100.00;98856.19;5027315;28;20542;-79
2024/02/12 06:42:48;;;;;;;7.15;1.60;;;;;;;10.12;100.00;98830.44;5027037;28;20108;-79
2024/02/12 06:45:16;;;;;;;3.17;1.67;;;;;;;10.22;100.00;98849.22;5027119;28;20072;-79
2024/02/12 06:47:42;;;;;;;;;;;;;;;10.41;100.00;98841.75;5027399;28;20033;-79
2024/02/12 06:50:07;;;;;;;9.07;3.33;;;;;;;10.36;100.00;98836.38;5025524;28;19919;-79
2024/02/12 06:52:33;;;;;;;20.55;8.52;;;;;;;10.26;100.00;98826.38;5027029;28;20041;-78
2024/02/12 06:54:59;;;;;;;13.23;7.13;;;;;;;10.28;100.00;98823.47;5026584;28;20032;-79
2024/02/12 06:57:24;;;;;;;13.38;7.65;;;;;;;10.50;100.00;98796.84;5026959;28;20037;-79
2024/02/12 06:59:49;;;;;;;16.30;8.13;;;;;;;10.69;100.00;98810.66;5035388;28;20067;-79
2024/02/12 07:02:15;;;;;;;19.23;9.98;;;;;;;10.50;100.00;98786.19;5035316;28;20375;-79
2024/02/12 07:04:42;;;;;;;30.67;16.45;;;;;;;10.61;100.00;98785.22;5032058;28;20174;-79
2024/02/12 07:07:07;;;;;;;45.45;32.60;;;;;;;10.73;100.00;98800.28;5040197;28;20108;-79
2024/02/12 07:09:35;;;;;;;54.30;32.75;;;;;;;10.60;100.00;98798.81;5039479;28;20110;-80
2024/02/12 07:12:01;;;;;;;59.63;33.13;;;;;;;10.35;100.00;98765.47;5040409;28;20041;-79
2024/02/12 07:14:27;;;;;;;29.38;15.27;;;;;;;10.58;100.00;98811.56;5039767;28;20299;-79
2024/02/12 07:16:52;;;;;;;13.35;6.15;;;;;;;10.59;100.00;98810.53;5040568;28;20108;-79
2024/02/12 07:19:18;;;;;;;27.88;11.02;;;;;;;10.64;100.00;98830.06;5038432;28;20164;-80
2024/02/12 07:21:43;;;;;;;14.27;5.47;;;;;;;10.43;100.00;98821.00;5038633;28;20383;-80
2024/02/12 07:24:09;;;;;;;50.60;18.13;;;;;;;10.45;100.00;98834.09;5030705;28;20407;-79
2024/02/12 07:26:35;;;;;;;142.98;50.55;;;;;;;10.59;100.00;98837.19;5037524;28;20068;-79
2024/02/12 07:29:00;;;;;;;57.70;24.00;;;;;;;10.43;100.00;98842.31;5036675;28;20076;-79
2024/02/12 07:31:26;;;;;;;7.95;3.60;;;;;;;10.23;100.00;98826.03;5038216;28;20445;-79
2024/02/12 07:33:53;;;;;;;8.40;3.55;;;;;;;9.81;100.00;98806.06;5031868;28;20117;-79
2024/02/12 07:36:18;;;;;;;41.08;21.17;;;;;;;9.98;100.00;98795.34;5040904;28;20064;-80
2024/02/12 07:38:44;;;;;;;58.25;30.83;;;;;;;10.26;100.00;98791.72;5036801;28;20049;-80
2024/02/12 07:41:12;;;;;;;77.15;44.58;;;;;;;10.25;100.00;98758.13;5038901;28;20032;-79
2024/02/12 07:43:38;;;;;;;79.53;39.90;;;;;;;10.39;100.00;98761.25;5039109;28;20032;-79
2024/02/12 07:46:04;;;;;;;94.72;44.92;;;;;;;10.55;100.00;98774.78;5030066;28;20029;-78
2024/02/12 07:48:29;;;;;;;61.90;27.92;;;;;;;10.60;100.00;98738.31;5029808;28;20099;-80
2024/02/12 07:50:55;;;;;;;151.88;65.90;;;;;;;10.80;100.00;98745.69;5074969;28;20029;-80
2024/02/12 07:53:25;;;;;;;123.68;48.70;;;;;;;10.92;100.00;98761.53;5030068;28;20029;-80
2024/02/12 07:55:54;;;;;;;26.02;12.45;;;;;;;11.22;100.00;98798.34;5030438;28;20036;-80
2024/02/12 07:58:20;;;;;;;31.35;25.17;;;;;;;11.27;100.00;98794.91;5029494;28;20426;-80
2024/02/12 08:00:49;;;;;;;11.43;5.32;;;;;;;11.37;100.00;98804.88;5028302;28;20041;-80
2024/02/12 08:03:19;;;;;;;9.98;6.07;;;;;;;11.51;100.00;98806.06;5029425;28;20506;-80
2024/02/12 08:05:48;;;;;;;14.98;10.48;;;;;;;11.61;100.00;98816.81;5027586;28;20084;-79
2024/02/12 08:08:14;;;;;;;19.35;13.88;;;;;;;11.82;100.00;98825.75;5029693;28;20051;-80
2024/02/12 08:10:40;;;;;;;18.38;11.60;;;;;;;11.87;100.00;98843.69;5029610;28;20394;-80
2024/02/12 08:13:07;;;;;;;10.93;5.95;;;;;;;12.17;100.00;98831.59;5028552;28;20049;-80
2024/02/12 08:15:33;;;;;;;12.82;8.70;;;;;;;12.23;100.00;98811.84;5024136;28;20049;-80
2024/02/12 08:17:58;;;;;;;13.10;7.90;;;;;;;12.43;100.00;98827.19;5029219;28;20025;-80
2024/02/12 08:20:25;;;;;;;14.32;8.20;;;;;;;12.72;100.00;98808.03;5017845;28;20541;-79
2024/02/12 08:22:54;;;;;;;12.50;7.50;;;;;;;13.02;100.00;98812.66;5026460;28;20034;-78
2024/02/12 08:25:20;;;;;;;9.32;3.92;;;;;;;12.83;100.00;98809.66;5027257;28;20041;-78
2024/02/12 08:27:45;;;;;;;13.68;6.75;;;;;;;12.81;100.00;98791.19;5025450;28;20033;-78
2024/02/12 08:30:11;;;;;;;12.15;6.75;;;;;;;13.06;100.00;98797.66;5024846;28;20026;-79
2024/02/12 08:32:36;;;;;;;14.57;8.25;;;;;;;13.01;100.00;98805.66;5022800;28;20113;-79
2024/02/12 08:35:05;;;;;;;57.75;39.03;;;;;;;13.08;100.00;98787.50;5027132;28;20033;-79
2024/02/12 08:37:30;;;;;;;;;;;;;;;13.07;100.00;98799.25;5028566;28;20037;-78
2024/02/12 08:39:56;;;;;;;29.13;23.52;;;;;;;12.94;100.00;98789.09;5029531;28;21012;-78
2024/02/12 08:42:21;;;;;;;26.83;23.42;;;;;;;13.41;100.00;98777.34;5027361;28;20482;-79
2024/02/12 08:44:49;;;;;;;13.68;8.25;;;;;;;14.03;100.00;98805.63;5028655;28;20033;-79
2024/02/12 08:47:15;;;;;;;8.85;2.75;;;;;;;14.04;100.00;98804.56;5028774;28;20025;-79
2024/02/12 08:49:43;;;;;;;6.03;1.92;;;;;;;13.92;100.00;98790.66;5027983;28;20430;-79
2024/02/12 08:52:08;;;;;;;5.05;2.55;;;;;;;14.43;100.00;98829.94;5027709;28;20106;-79
2024/02/12 08:54:34;;;;;;;4.78;1.30;;;;;;;14.26;100.00;98857.03;5028957;28;20558;-79
2024/02/12 08:56:59;;;;;;;2.78;1.40;;;;;;;14.26;100.00;98841.78;5028840;28;20037;-79
2024/02/12 08:59:25;;;;;;;3.50;1.40;;;;;;;14.76;100.00;98855.28;5028726;28;20029;-79
2024/02/12 09:01:51;;;;;;;6.22;1.77;;;;;;;14.77;100.00;98830.06;5027114;28;20049;-79
2024/02/12 09:04:17;;;;;;;8.70;3.58;;;;;;;15.15;100.00;98857.22;5028694;28;20068;-79
2024/02/12 09:06:42;;;;;;;11.80;6.00;;;;;;;15.24;100.00;98844.00;5028222;28;20065;-79
2024/02/12 09:09:12;;;;;;;6.63;2.75;;;;;;;15.39;100.00;98862.69;5027078;28;20160;-78
2024/02/12 09:11:38;;;;;;;4.57;2.40;;;;;;;15.52;100.00;98868.53;5028222;28;20526;-78
2024/02/12 09:14:06;;;;;;;4.47;1.50;;;;;;;15.60;100.00;98857.97;5027825;28;20038;-79
2024/02/12 09:16:31;;;;;;;6.55;1.48;;;;;;;15.73;100.00;98880.72;5029358;28;20603;-79
2024/02/12 09:18:57;;;;;;;6.70;2.88;;;;;;;15.75;100.00;98856.25;5028490;28;20037;-79
2024/02/12 09:21:22;;;;;;;6.20;2.53;;;;;;;15.86;100.00;98855.09;5027714;28;20025;-79
2024/02/12 09:23:47;;;;;;;11.88;6.03;;;;;;;16.03;100.00;98858.13;5028279;28;20177;-80
2024/02/12 09:26:17;;;;;;;4.57;1.77;;;;;;;16.00;100.00;98866.78;5027510;28;20133;-79
2024/02/12 09:28:43;;;;;;;31.10;28.30;;;;;;;15.77;100.00;98859.47;5027689;28;20048;-79
2024/02/12 09:31:08;;;;;;;4.78;1.80;;;;;;;16.39;100.00;98865.84;5027773;28;20731;-79
2024/02/12 09:33:34;;;;;;;8.70;3.00;;;;;;;17.24;100.00;98861.53;5028069;28;20597;-79
2024/02/12 09:35:59;;;;;;;6.35;1.55;;;;;;;17.17;100.00;98873.78;5026397;28;20120;-79
2024/02/12 09:38:25;;;;;;;6.45;1.50;;;;;;;16.42;100.00;98859.88;5028235;28;20076;-79
2024/02/12 09:40:52;;;;;;;5.40;2.00;;;;;;;16.45;100.00;98851.25;5026657;28;20037;-79
2024/02/12 09:43:21;;;;;;;7.65;1.90;;;;;;;16.80;100.00;98856.47;5027696;28;20039;-80
2024/02/12 09:45:49;;;;;;;5.72;1.65;;;;;;;16.47;100.00;98854.44;5029540;28;20057;-79
2024/02/12 09:48:14;;;;;;;3.70;1.15;;;;;;;16.97;100.00;98827.16;5027820;28;20021;-79
2024/02/12 09:50:44;;;;;;;7.05;1.30;;;;;;;16.86;100.00;98833.81;5026478;28;20095;-79
2024/02/12 09:53:13;;;;;;;10.73;6.93;;;;;;;16.99;100.00;98832.28;5027252;28;20038;-79
2024/02/12 09:55:40;;;;;;;8.70;3.20;;;;;;;16.95;100.00;98837.44;5027671;28;20037;-80
2024/02/12 09:58:07;;;;;;;11.50;7.07;;;;;;;17.14;100.00;98823.97;5007870;28;20022;-79
2024/02/12 10:00:32;;;;;;;5.85;2.47;;;;;;;17.15;100.00;98830.97;5007766;28;20617;-79
2024/02/12 10:02:58;;;;;;;8.68;4.18;;;;;;;16.80;100.00;98819.56;5014388;28;20727;-79
2024/02/12 10:05:23;;;;;;;6.18;3.60;;;;;;;17.16;100.00;98831.75;5027410;28;20029;-78
2024/02/12 10:07:50;;;;;;;8.02;2.72;;;;;;;17.20;100.00;98828.19;5029883;28;20767;-78
2024/02/12 10:10:17;;;;;;;4.55;1.65;;;;;;;17.37;100.00;98833.06;5027158;28;20509;-79
2024/02/12 10:12:50;;;;;;;4.70;1.60;;;;;;;18.27;95.56;98830.16;5027092;28;20025;-80
2024/02/12 10:15:18;;;;;;;7.57;2.53;;;;;;;18.68;100.00;98813.13;5026981;28;20145;-79
2024/02/12 10:17:45;;;;;;;;;;;;;;;18.41;90.52;98835.56;5027373;28;20033;-80
2024/02/12 10:20:10;;;;;;;11.90;3.85;;;;;;;18.41;90.59;98812.06;5027031;28;20413;-79
2024/02/12 10:22:37;;;;;;;45.25;30.48;;;;;;;18.41;94.33;98812.06;5025931;28;20033;-79
2024/02/12 10:25:04;;;;;;;15.05;7.80;;;;;;;18.43;93.18;98827.97;5018587;28;20527;-79
2024/02/12 10:27:30;;;;;;;28.55;11.55;;;;;;;18.81;92.52;98842.03;5014121;28;20030;-79
2024/02/12 10:29:59;;;;;;;4.68;1.10;;;;;;;18.18;97.73;98835.44;5013951;28;20060;-79
2024/02/12 10:32:26;;;;;;;15.40;5.00;;;;;;;17.96;95.99;98811.84;5007631;28;20102;-79
2024/02/12 10:34:58;;;;;;;8.82;2.05;;;;;;;19.11;90.31;98828.94;5027086;28;20029;-79
2024/02/12 10:37:26;;;;;;;7.10;1.80;;;;;;;19.50;79.44;98808.56;5027934;28;20554;-79
2024/02/12 10:39:54;;;;;;;6.20;1.30;;;;;;;19.91;74.96;98840.00;5027863;28;20310;-80
2024/02/12 10:42:35;;;;;;;9.68;1.90;;;;;;;19.58;67.80;98832.16;5029378;28;20038;-79
2024/02/12 10:45:02;;;;;;;10.77;2.00;;;;;;;19.54;64.71;98831.16;5030982;28;20099;-79
2024/02/12 10:47:27;;;;;;;15.30;2.20;;;;;;;19.89;66.66;98836.81;5029539;28;20033;-79
2024/02/12 10:49:56;;;;;;;13.02;1.50;;;;;;;20.13;58.54;98851.91;5031155;28;20134;-79
2024/02/12 10:52:22;;;;;;;10.65;2.53;;;;;;;19.55;61.46;98832.75;5031054;28;20064;-79
2024/02/12 10:54:48;;;;;;;11.30;1.35;;;;;;;19.85;63.01;98825.00;5030778;28;20068;-79
2024/02/12 10:57:13;;;;;;;8.13;1.23;;;;;;;20.05;61.60;98838.00;5031098;28;20057;-79
2024/02/12 10:59:39;;;;;;;9.27;1.52;;;;;;;19.36;68.75;98838.34;5030673;28;20111;-79
2024/02/12 11:02:09;;;;;;;10.07;2.10;;;;;;;19.39;69.38;98834.22;5030407;28;20442;-79
2024/02/12 11:04:37;;;;;;;8.73;1.25;;;;;;;18.51;68.87;98805.66;5030095;28;20483;-78
2024/02/12 11:07:18;;;;;;;12.20;1.60;;;;;;;18.62;66.60;98827.84;5019574;28;20037;-78
2024/02/12 11:09:56;;;;;;;8.73;1.10;;;;;;;18.38;65.82;98833.44;5030377;28;20022;-78
2024/02/12 11:12:22;;;;;;;;;;;;;;;18.92;62.74;98849.91;5031002;28;20057;-79
2024/02/12 11:14:49;;;;;;;16.17;1.75;;;;;;;18.93;65.18;98835.31;5028439;28;19971;-79
2024/02/12 11:17:26;;;;;;;12.13;1.65;;;;;;;19.19;63.42;98857.94;5036379;28;20025;-79
2024/02/12 11:19:52;;;;;;;10.40;1.80;;;;;;;19.25;59.90;98850.53;5037126;28;20025;-79
2024/02/12 11:22:25;;;;;;;12.98;1.45;;;;;;;19.40;59.91;98836.63;5038551;28;20018;-79
2024/02/12 11:24:51;;;;;;;9.13;2.22;;;;;;;19.25;60.32;98834.31;5031189;28;20037;-80
2024/02/12 11:27:16;;;;;;;11.88;1.58;;;;;;;19.62;59.53;98824.22;5041200;28;20036;-80
2024/02/12 11:29:46;;;;;;;9.32;1.52;;;;;;;20.00;56.76;98811.09;5040935;28;20060;-79
2024/02/12 11:32:22;;;;;;;12.38;1.52;;;;;;;20.44;55.50;98822.06;5040372;28;20032;-79
2024/02/12 11:34:47;;;;;;;10.32;1.90;;;;;;;20.41;54.03;98823.50;5037195;28;20464;-79
2024/02/12 11:37:18;;;;;;;9.38;1.90;;;;;;;20.76;56.83;98820.88;5021165;28;20016;-79
2024/02/12 11:39:44;;;;;;;13.52;2.88;;;;;;;21.39;54.43;98815.13;5030186;28;20037;-77